Time;durP1;ratioP1;P1;durP2;ratioP2;P2;SDS_P1;SDS_P2;PMS_P1;PMS_P2;Temp;Humidity;BMP_temperature;BMP_pressure;BME280_temperature;BME280_humidity;BME280_pressure;Samples;Min_cycle;Max_cycle;Signal;HPM_P1;HPM_P2
2023/10/01 00:00:49;;;;;;;12.45;3.47;;;;;;;12.38;100.00;101703.06;4906363;29;20429;-87
2023/10/01 00:03:22;;;;;;;9.38;3.10;;;;;;;12.54;100.00;101708.56;4903138;29;20816;-86
2023/10/01 00:05:55;;;;;;;12.23;3.30;;;;;;;12.53;100.00;101706.94;4917263;29;20437;-87
2023/10/01 00:08:29;;;;;;;10.33;3.40;;;;;;;12.75;100.00;101701.28;4925279;29;20430;-87
2023/10/01 00:10:58;;;;;;;11.45;3.53;;;;;;;12.61;100.00;101694.66;4894102;29;20426;-87
2023/10/01 00:13:26;;;;;;;11.35;3.58;;;;;;;12.69;100.00;101696.88;4915796;29;20446;-87
2023/10/01 00:15:59;;;;;;;9.85;3.50;;;;;;;12.53;100.00;101680.44;4922642;29;20803;-88
2023/10/01 00:18:28;;;;;;;9.52;3.33;;;;;;;12.50;100.00;101683.72;4884896;29;20449;-87
2023/10/01 00:20:56;;;;;;;11.05;3.45;;;;;;;12.52;100.00;101673.34;4907755;29;20430;-87
2023/10/01 00:23:31;;;;;;;11.15;3.38;;;;;;;12.49;100.00;101675.81;4913782;29;20900;-87
2023/10/01 00:26:06;;;;;;;12.15;3.85;;;;;;;12.47;100.00;101675.22;4894117;29;20441;-87
2023/10/01 00:28:41;;;;;;;11.27;3.30;;;;;;;12.47;100.00;101670.63;4891200;29;21146;-87
2023/10/01 00:31:14;;;;;;;11.98;3.35;;;;;;;12.49;100.00;101667.63;4932181;29;20422;-87
2023/10/01 00:33:48;;;;;;;11.87;3.20;;;;;;;12.57;100.00;101673.34;4898557;29;20439;-87
2023/10/01 00:36:17;;;;;;;11.80;3.38;;;;;;;12.50;100.00;101672.00;4922844;29;20951;-87
2023/10/01 00:38:52;;;;;;;9.60;3.50;;;;;;;12.46;100.00;101677.16;4928576;29;20925;-87
2023/10/01 00:41:25;;;;;;;10.85;3.35;;;;;;;12.44;100.00;101676.59;4920896;29;20434;-87
2023/10/01 00:44:01;;;;;;;9.73;2.90;;;;;;;12.46;100.00;101668.16;4899742;29;20437;-87
2023/10/01 00:46:34;;;;;;;9.93;3.20;;;;;;;12.47;100.00;101673.34;4912615;29;20806;-87
2023/10/01 00:49:04;;;;;;;10.77;3.72;;;;;;;12.48;100.00;101664.03;4893307;29;20431;-87
2023/10/01 00:51:37;;;;;;;9.60;3.38;;;;;;;12.49;100.00;101664.88;4913936;29;20459;-87
2023/10/01 00:54:10;;;;;;;13.15;3.78;;;;;;;12.48;100.00;101664.03;4893589;29;20792;-88
2023/10/01 00:56:42;;;;;;;10.10;3.55;;;;;;;12.57;100.00;101665.16;4914840;29;20438;-87
2023/10/01 00:59:11;;;;;;;10.50;3.20;;;;;;;12.44;100.00;101652.00;4889363;29;20431;-86
2023/10/01 01:01:44;;;;;;;11.38;3.50;;;;;;;12.47;100.00;101650.66;4903534;29;20430;-86
2023/10/01 01:04:22;;;;;;;11.98;3.50;;;;;;;12.47;100.00;101647.94;4906800;29;20435;-87
2023/10/01 01:06:52;;;;;;;12.45;3.90;;;;;;;12.38;100.00;101634.81;4907238;29;20433;-86
2023/10/01 01:09:28;;;;;;;11.35;3.65;;;;;;;12.53;100.00;101639.50;4911310;29;20433;-87
2023/10/01 01:12:01;;;;;;;11.63;3.55;;;;;;;12.49;100.00;101632.13;4903456;29;20458;-87
2023/10/01 01:14:35;;;;;;;11.40;3.65;;;;;;;12.38;100.00;101628.53;4907675;29;20425;-87
2023/10/01 01:17:09;;;;;;;11.45;4.00;;;;;;;12.34;100.00;101622.78;4903561;29;20445;-87
2023/10/01 01:19:37;;;;;;;10.07;3.33;;;;;;;12.44;100.00;101630.19;4898354;29;20429;-86
2023/10/01 01:22:28;;;;;;;8.13;3.50;;;;;;;12.48;100.00;101635.94;4921493;29;20449;-87
2023/10/01 01:25:10;;;;;;;11.00;3.80;;;;;;;12.53;100.00;101623.09;4903722;29;20436;-87
2023/10/01 01:27:43;;;;;;;11.65;3.72;;;;;;;12.52;100.00;101624.19;4899399;29;20435;-87
2023/10/01 01:30:19;;;;;;;10.00;3.40;;;;;;;12.45;100.00;101614.63;4899112;29;20441;-87
2023/10/01 01:32:55;;;;;;;12.20;3.65;;;;;;;12.55;100.00;101618.22;4915619;29;20443;-87
2023/10/01 01:35:28;;;;;;;12.60;3.30;;;;;;;12.52;100.00;101618.72;4930495;29;20754;-87
2023/10/01 01:38:04;;;;;;;11.07;3.58;;;;;;;12.49;100.00;101613.00;4914950;29;20421;-87
2023/10/01 01:40:36;;;;;;;10.77;3.50;;;;;;;12.44;100.00;101618.44;4907044;29;20424;-87
2023/10/01 01:43:16;;;;;;;9.07;3.45;;;;;;;12.44;100.00;101615.72;4926731;29;20437;-87
2023/10/01 01:45:54;;;;;;;11.48;3.42;;;;;;;12.45;100.00;101609.97;4910838;29;20437;-87
2023/10/01 01:48:30;;;;;;;12.48;3.33;;;;;;;12.46;100.00;101616.28;4891847;29;20804;-86
2023/10/01 01:51:04;;;;;;;9.18;3.17;;;;;;;12.49;100.00;101619.28;4889846;29;20948;-87
2023/10/01 01:53:35;;;;;;;10.07;3.30;;;;;;;12.49;100.00;101619.28;4917834;29;20802;-87
2023/10/01 01:56:08;;;;;;;11.00;3.50;;;;;;;12.49;100.00;101632.94;4884728;29;20439;-87
2023/10/01 01:58:37;;;;;;;11.13;3.40;;;;;;;12.49;100.00;101622.00;4895077;29;20435;-87
2023/10/01 02:01:23;;;;;;;11.32;3.30;;;;;;;12.46;100.00;101633.47;4918544;29;20440;-87
2023/10/01 02:03:51;;;;;;;13.20;3.45;;;;;;;12.51;100.00;101635.38;4923267;29;20428;-87
2023/10/01 02:06:27;;;;;;;10.10;3.05;;;;;;;12.56;100.00;101632.69;4913804;29;20443;-87
2023/10/01 02:09:12;;;;;;;10.57;3.28;;;;;;;12.55;100.00;101625.56;4889787;29;20459;-87
2023/10/01 02:11:47;;;;;;;10.90;3.17;;;;;;;12.55;100.00;101622.84;4906186;29;20459;-87
2023/10/01 02:17:15;;;;;;;10.50;3.03;;;;;;;12.52;100.00;101612.47;5134200;27;20399;-88
2023/10/01 02:19:46;;;;;;;12.40;3.42;;;;;;;12.57;100.00;101609.75;5117385;27;20416;-88
2023/10/01 02:22:16;;;;;;;10.55;3.25;;;;;;;12.58;100.00;101612.19;5132652;27;20411;-88
2023/10/01 02:24:54;;;;;;;10.65;3.47;;;;;;;12.55;100.00;101603.72;5127007;27;20424;-88
2023/10/01 02:27:26;;;;;;;12.15;3.55;;;;;;;12.56;100.00;101603.44;5132233;27;20432;-88
2023/10/01 02:30:14;;;;;;;13.63;3.57;;;;;;;12.46;100.00;101589.78;5113190;27;20407;-88
2023/10/01 02:33:15;;;;;;;12.13;3.45;;;;;;;12.48;100.00;101590.31;5114655;27;20412;-89
2023/10/01 02:35:41;;;;;;;12.45;3.80;;;;;;;12.54;100.00;101602.91;5131477;27;20416;-88
2023/10/01 02:38:36;;;;;;;9.77;3.17;;;;;;;12.52;100.00;101593.34;5133596;27;20414;-88
2023/10/01 02:40:59;;;;;;;8.95;3.45;;;;;;;12.52;100.00;101602.34;5131048;27;20879;-88
2023/10/01 02:43:34;;;;;;;10.20;3.50;;;;;;;12.53;100.00;101606.72;5131156;27;20738;-87
2023/10/01 02:46:04;;;;;;;11.73;3.40;;;;;;;12.61;100.00;101601.81;5116158;27;20406;-88
2023/10/01 02:48:34;;;;;;;10.85;3.72;;;;;;;12.59;100.00;101597.47;5128282;27;20429;-88
2023/10/01 02:51:14;;;;;;;12.00;3.85;;;;;;;12.44;100.00;101591.97;5132055;27;20412;-89
2023/10/01 02:56:32;;;;;;;12.10;3.83;;;;;;;12.47;100.00;101601.53;5128300;27;20440;-88
2023/10/01 02:59:08;;;;;;;12.82;4.07;;;;;;;12.58;100.00;101601.28;5133476;27;20414;-90
2023/10/01 03:01:38;;;;;;;9.93;3.75;;;;;;;12.50;100.00;101601.81;5128818;27;20787;-90
2023/10/01 03:04:10;;;;;;;12.93;3.80;;;;;;;12.55;100.00;101598.25;5131265;27;20409;-88
2023/10/01 03:06:47;;;;;;;12.65;3.83;;;;;;;12.49;100.00;101581.06;5136330;27;20409;-88
2023/10/01 03:09:29;;;;;;;13.38;3.92;;;;;;;12.52;100.00;101591.44;5128460;27;20954;-89
2023/10/01 03:12:24;;;;;;;12.05;3.97;;;;;;;12.72;100.00;101601.56;5119777;27;20430;-88
2023/10/01 03:15:00;;;;;;;12.95;4.10;;;;;;;12.59;100.00;101586.53;5130275;27;20781;-89
2023/10/01 03:17:35;;;;;;;13.05;4.10;;;;;;;12.58;100.00;101594.97;5129287;27;20419;-88
2023/10/01 03:20:16;;;;;;;12.75;3.80;;;;;;;12.57;100.00;101591.44;5129266;27;20418;-88
2023/10/01 03:22:52;;;;;;;12.57;4.10;;;;;;;12.52;100.00;101579.69;5128150;27;21052;-88
2023/10/01 03:25:27;;;;;;;12.30;4.20;;;;;;;12.52;100.00;101588.69;5132268;27;20413;-88
2023/10/01 03:27:58;;;;;;;11.68;3.90;;;;;;;12.48;100.00;101592.25;5120700;27;20490;-88
2023/10/01 03:30:33;;;;;;;11.27;3.80;;;;;;;12.54;100.00;101589.25;5115745;27;20925;-88
2023/10/01 03:33:07;;;;;;;13.85;4.07;;;;;;;12.50;100.00;101582.69;5136637;27;20435;-88
2023/10/01 03:35:37;;;;;;;9.80;3.73;;;;;;;12.51;100.00;101591.69;5103462;27;20496;-88
2023/10/01 03:38:14;;;;;;;10.53;3.80;;;;;;;12.44;100.00;101593.88;5117678;27;20428;-89
2023/10/01 03:41:06;;;;;;;13.15;4.18;;;;;;;12.42;100.00;101596.88;5114056;27;20414;-90
2023/10/01 03:43:42;;;;;;;11.73;4.00;;;;;;;12.34;100.00;101589.22;5097905;27;20415;-88
2023/10/01 03:46:14;;;;;;;9.93;3.57;;;;;;;12.45;100.00;101598.25;5102410;27;20797;-90
2023/10/01 03:49:03;;;;;;;13.20;4.05;;;;;;;12.48;100.00;101594.97;5120736;27;20435;-89
2023/10/01 03:54:26;;;;;;;13.53;4.67;;;;;;;12.31;100.00;101587.84;5112196;27;20888;-89
2023/10/01 03:56:57;;;;;;;11.77;4.15;;;;;;;12.34;100.00;101590.03;5099030;27;20422;-88
2023/10/01 03:59:27;;;;;;;13.18;4.20;;;;;;;12.34;100.00;101584.56;5118614;27;20414;-89
2023/10/01 04:02:02;;;;;;;12.95;4.53;;;;;;;12.49;100.00;101594.72;5116682;27;20408;-88
2023/10/01 04:04:32;;;;;;;11.23;4.30;;;;;;;12.32;100.00;101597.69;5115521;27;20420;-88
2023/10/01 04:07:10;;;;;;;13.15;4.68;;;;;;;12.26;100.00;101598.75;5114873;27;20434;-88
2023/10/01 04:09:46;;;;;;;12.60;5.07;;;;;;;12.24;100.00;101590.81;5101765;27;20904;-87
2023/10/01 04:12:28;;;;;;;13.90;4.75;;;;;;;12.30;100.00;101586.19;5116711;27;20790;-89
2023/10/01 04:15:01;;;;;;;15.20;4.82;;;;;;;12.30;100.00;101580.75;5115675;27;20418;-87
2023/10/01 04:17:30;;;;;;;12.40;4.88;;;;;;;12.27;100.00;101572.28;5113448;27;20432;-87
2023/10/01 04:20:00;;;;;;;12.90;4.82;;;;;;;12.26;100.00;101579.63;5116375;27;20429;-88
2023/10/01 04:22:30;;;;;;;12.77;4.90;;;;;;;12.20;100.00;101569.81;5117069;27;20403;-87
2023/10/01 04:25:10;;;;;;;10.57;4.45;;;;;;;12.11;100.00;101558.59;5121069;27;20423;-88
2023/10/01 04:27:41;;;;;;;16.10;5.22;;;;;;;12.13;100.00;101564.59;5119524;27;20415;-87
2023/10/01 04:30:11;;;;;;;14.68;5.15;;;;;;;12.13;100.00;101566.53;5113088;27;20427;-87
2023/10/01 04:32:40;;;;;;;11.45;4.63;;;;;;;12.08;100.00;101559.97;5124466;27;20441;-87
2023/10/01 04:35:15;;;;;;;15.27;5.00;;;;;;;12.05;100.00;101574.13;5119767;27;20416;-88
2023/10/01 04:37:47;;;;;;;14.73;5.00;;;;;;;11.98;100.00;101575.47;5119306;27;20429;-88
2023/10/01 04:40:39;;;;;;;14.57;5.20;;;;;;;11.94;100.00;101569.72;5121374;27;20405;-88
2023/10/01 04:43:10;;;;;;;13.05;5.10;;;;;;;11.90;100.00;101566.69;5118799;27;20435;-88
2023/10/01 04:45:40;;;;;;;13.17;5.27;;;;;;;11.93;100.00;101578.94;5095922;27;20414;-88
2023/10/01 04:48:15;;;;;;;15.03;5.07;;;;;;;11.80;100.00;101563.09;5106538;27;20412;-87
2023/10/01 04:50:46;;;;;;;14.65;5.47;;;;;;;11.78;100.00;101563.38;5114036;27;20883;-88
2023/10/01 04:53:15;;;;;;;17.20;5.50;;;;;;;11.68;100.00;101555.13;5121766;27;20422;-88
2023/10/01 04:55:44;;;;;;;11.95;5.72;;;;;;;11.68;100.00;101563.31;5114517;27;20419;-87
2023/10/01 04:58:14;;;;;;;14.23;5.63;;;;;;;11.64;100.00;101559.47;5119285;27;20416;-87
2023/10/01 05:00:49;;;;;;;14.05;6.25;;;;;;;11.67;100.00;101559.78;5130875;27;20422;-87
2023/10/01 05:03:17;;;;;;;18.80;6.07;;;;;;;11.66;100.00;101557.31;5106034;28;20924;-87
2023/10/01 05:05:48;;;;;;;16.45;6.60;;;;;;;11.65;100.00;101559.19;5107260;28;20419;-88
2023/10/01 05:08:22;;;;;;;17.88;6.55;;;;;;;11.60;100.00;101534.66;5113493;27;20412;-88
2023/10/01 05:10:56;;;;;;;15.73;6.47;;;;;;;11.72;100.00;101559.81;5130908;27;20420;-88
2023/10/01 05:13:31;;;;;;;13.68;6.28;;;;;;;11.78;100.00;101557.06;5112536;27;20974;-88
2023/10/01 05:16:06;;;;;;;13.18;6.45;;;;;;;11.82;100.00;101561.75;5115387;27;20411;-87
2023/10/01 05:18:35;;;;;;;14.23;6.35;;;;;;;11.83;100.00;101581.66;5103360;27;20941;-88
2023/10/01 05:21:09;;;;;;;15.07;6.83;;;;;;;11.80;100.00;101579.47;5101815;28;20428;-88
2023/10/01 05:23:40;;;;;;;15.70;7.00;;;;;;;11.86;100.00;101576.50;5104221;28;20430;-89
2023/10/01 05:26:09;;;;;;;14.48;6.68;;;;;;;11.96;100.00;101574.91;5114697;27;20892;-86
2023/10/01 05:28:41;;;;;;;17.20;6.85;;;;;;;11.82;100.00;101559.03;5107278;27;20412;-88
2023/10/01 05:31:12;;;;;;;19.27;6.85;;;;;;;11.83;100.00;101570.75;5118181;27;20387;-89
2023/10/01 05:33:46;;;;;;;15.18;6.78;;;;;;;11.76;100.00;101576.44;5131022;27;20902;-88
2023/10/01 05:36:16;;;;;;;14.20;7.13;;;;;;;11.84;100.00;101583.28;5110248;27;20415;-88
2023/10/01 05:38:46;;;;;;;17.13;7.25;;;;;;;11.91;100.00;101589.31;5110638;27;20423;-89
2023/10/01 05:41:15;;;;;;;14.52;6.90;;;;;;;11.85;100.00;101569.38;5110711;27;20425;-88
2023/10/01 05:43:50;;;;;;;16.27;7.00;;;;;;;11.99;100.00;101579.84;5114779;27;20410;-88
2023/10/01 05:46:18;;;;;;;16.10;7.35;;;;;;;12.03;100.00;101581.75;5108855;27;20416;-88
2023/10/01 05:48:49;;;;;;;15.90;7.07;;;;;;;12.06;100.00;101575.75;5107638;27;20404;-89
2023/10/01 05:51:19;;;;;;;14.37;7.37;;;;;;;12.05;100.00;101585.03;5101587;27;20489;-88
2023/10/01 05:53:49;;;;;;;17.63;7.05;;;;;;;11.97;100.00;101580.09;5100688;28;20409;-88
2023/10/01 05:56:18;;;;;;;18.37;7.43;;;;;;;12.00;100.00;101582.31;5111409;27;20438;-87
2023/10/01 05:58:47;;;;;;;13.65;6.80;;;;;;;11.99;100.00;101572.47;5111724;27;20420;-88
2023/10/01 06:01:16;;;;;;;15.52;6.72;;;;;;;12.07;100.00;101610.16;5104047;28;20445;-85
2023/10/01 06:03:48;;;;;;;17.88;7.13;;;;;;;12.13;100.00;101608.25;5108519;27;20408;-87
2023/10/01 06:06:24;;;;;;;18.50;7.85;;;;;;;12.06;100.00;101610.41;5100643;27;20405;-87
2023/10/01 06:08:59;;;;;;;18.92;8.07;;;;;;;12.07;100.00;101607.41;5104684;27;20400;-88
2023/10/01 06:11:48;;;;;;;17.13;8.43;;;;;;;12.03;100.00;101589.94;5096868;28;20418;-87
2023/10/01 06:17:05;;;;;;;15.52;8.45;;;;;;;12.27;100.00;101610.50;5119728;27;20431;-87
2023/10/01 06:19:33;;;;;;;17.77;8.57;;;;;;;12.20;100.00;101597.91;5119351;28;20444;-87
2023/10/01 06:22:16;;;;;;;17.20;8.63;;;;;;;12.28;100.00;101607.50;5105625;28;20409;-87
2023/10/01 06:24:46;;;;;;;17.15;8.60;;;;;;;12.29;100.00;101603.69;5128229;27;20426;-86
2023/10/01 06:27:18;;;;;;;17.65;8.50;;;;;;;12.24;100.00;101607.19;5109330;28;20423;-87
2023/10/01 06:29:56;;;;;;;18.35;9.00;;;;;;;12.24;100.00;101599.00;5116525;28;20400;-87
2023/10/01 06:32:29;;;;;;;19.05;9.38;;;;;;;12.29;100.00;101614.59;5109548;28;20414;-87
2023/10/01 06:35:02;;;;;;;15.70;8.77;;;;;;;12.42;100.00;101611.34;5109119;28;20789;-88
2023/10/01 06:37:50;;;;;;;19.55;8.57;;;;;;;12.41;100.00;101607.00;5111112;28;20415;-88
2023/10/01 06:40:30;;;;;;;18.23;8.93;;;;;;;12.42;100.00;101605.06;5107783;28;20417;-88
2023/10/01 06:42:59;;;;;;;18.52;8.73;;;;;;;12.33;100.00;101598.50;5110106;27;20470;-88
2023/10/01 06:45:40;;;;;;;18.70;8.87;;;;;;;12.25;100.00;101586.19;5102378;28;20423;-88
2023/10/01 06:48:09;;;;;;;16.90;9.07;;;;;;;12.39;100.00;101594.69;5119479;28;20431;-88
2023/10/01 06:50:39;;;;;;;18.38;9.30;;;;;;;12.54;100.00;101615.72;5129076;27;20420;-87
2023/10/01 06:53:09;;;;;;;20.00;9.35;;;;;;;12.55;100.00;101618.22;5105857;28;20408;-87
2023/10/01 06:55:47;;;;;;;19.33;9.48;;;;;;;12.83;100.00;101599.66;5107662;28;20910;-87
2023/10/01 06:58:15;;;;;;;21.48;10.10;;;;;;;12.65;100.00;101595.56;5099945;28;20420;-86
2023/10/01 07:00:43;;;;;;;19.55;10.15;;;;;;;12.67;100.00;101592.56;5108878;28;20432;-88
2023/10/01 07:03:18;;;;;;;20.75;10.02;;;;;;;12.55;100.00;101590.91;5105919;27;21420;-87
2023/10/01 07:05:55;;;;;;;19.30;9.65;;;;;;;12.79;100.00;101605.94;5103118;28;20426;-88
2023/10/01 07:08:37;;;;;;;16.67;9.73;;;;;;;12.74;100.00;101610.28;5099077;28;20862;-87
2023/10/01 07:11:13;;;;;;;22.67;10.32;;;;;;;12.85;100.00;101597.47;5097809;28;20425;-88
2023/10/01 07:13:42;;;;;;;18.75;10.25;;;;;;;12.91;100.00;101601.03;5109500;28;20420;-88
2023/10/01 07:16:18;;;;;;;20.13;9.90;;;;;;;12.87;100.00;101608.13;5114818;27;20428;-86
2023/10/01 07:18:46;;;;;;;18.92;10.30;;;;;;;12.92;100.00;101608.13;5108006;28;20420;-87
2023/10/01 07:21:16;;;;;;;20.25;10.73;;;;;;;12.95;100.00;101614.97;5111296;27;20412;-87
2023/10/01 07:23:44;;;;;;;18.58;9.85;;;;;;;13.25;100.00;101603.19;5111168;27;20420;-87
2023/10/01 07:26:19;;;;;;;18.90;10.20;;;;;;;13.19;100.00;101607.84;5108767;27;20422;-87
2023/10/01 07:28:56;;;;;;;18.93;10.57;;;;;;;13.27;100.00;101610.03;5113970;27;20829;-87
2023/10/01 07:31:25;;;;;;;20.67;10.63;;;;;;;13.31;100.00;101612.22;5111905;27;20455;-87
2023/10/01 07:33:54;;;;;;;22.83;11.13;;;;;;;13.25;100.00;101595.00;5105465;27;20458;-88
2023/10/01 07:36:27;;;;;;;23.27;11.40;;;;;;;13.30;100.00;101605.09;5114943;27;20950;-87
2023/10/01 07:38:57;;;;;;;21.88;10.77;;;;;;;13.34;100.00;101615.22;5103550;27;20418;-87
2023/10/01 07:41:28;;;;;;;19.90;10.52;;;;;;;13.30;100.00;101602.38;5115175;27;20419;-88
2023/10/01 07:43:56;;;;;;;23.85;11.70;;;;;;;13.37;100.00;101589.28;5126099;27;20428;-87
2023/10/01 07:46:25;;;;;;;26.48;11.57;;;;;;;13.38;100.00;101597.22;5112377;27;20427;-88
2023/10/01 07:48:54;;;;;;;20.85;10.82;;;;;;;13.43;100.00;101623.72;5108350;27;20423;-88
2023/10/01 07:51:27;;;;;;;18.50;10.25;;;;;;;13.33;100.00;101610.03;5109325;27;20406;-88
2023/10/01 07:53:59;;;;;;;21.73;10.93;;;;;;;13.23;100.00;101602.66;5113421;27;20416;-87
2023/10/01 07:56:29;;;;;;;23.75;10.80;;;;;;;13.34;100.00;101623.44;5117390;27;20472;-88
2023/10/01 08:01:59;;;;;;;19.10;9.82;;;;;;;13.40;100.00;101611.41;5112223;27;20428;-88
2023/10/01 08:04:56;;;;;;;22.23;10.35;;;;;;;13.49;100.00;101606.22;5115407;27;20412;-86
2023/10/01 08:07:31;;;;;;;19.73;9.90;;;;;;;13.54;100.00;101597.16;5112271;27;20425;-88
2023/10/01 08:10:04;;;;;;;21.15;10.50;;;;;;;13.77;100.00;101612.16;5116413;27;20412;-85
2023/10/01 08:15:31;;;;;;;20.80;10.55;;;;;;;14.00;100.00;101607.94;5113129;28;21162;-91
2023/10/01 08:20:56;;;;;;;18.20;10.17;;;;;;;14.00;100.00;101618.88;5101568;28;20428;-89
2023/10/01 08:23:28;;;;;;;18.30;10.25;;;;;;;13.98;100.00;101621.09;5103749;27;21007;-89
2023/10/01 08:26:43;;;;;;;19.55;9.70;;;;;;;14.10;100.00;101621.59;5128010;27;20422;-87
2023/10/01 08:28:57;;;;;;;20.77;10.05;;;;;;;14.12;100.00;101621.31;5105964;27;20426;-88
2023/10/01 08:34:24;;;;;;;19.20;9.60;;;;;;;14.18;100.00;101613.88;5126646;27;20409;-89
2023/10/01 08:36:54;;;;;;;18.42;9.63;;;;;;;14.18;100.00;101595.53;5109456;27;20434;-90
2023/10/01 08:39:34;;;;;;;18.75;9.80;;;;;;;14.32;100.00;101600.41;5102190;27;20421;-89
2023/10/01 08:42:08;;;;;;;16.08;9.63;;;;;;;14.42;100.00;101614.06;5114726;27;20422;-89
2023/10/01 08:44:48;;;;;;;19.73;9.77;;;;;;;14.50;100.00;101629.88;5106468;27;20418;-89
2023/10/01 08:47:31;;;;;;;19.25;9.52;;;;;;;14.66;100.00;101630.63;5108830;27;20416;-90
2023/10/01 08:50:18;;;;;;;19.67;9.27;;;;;;;14.59;100.00;101630.91;5109972;27;20417;-89
2023/10/01 08:52:56;;;;;;;20.45;9.68;;;;;;;14.61;100.00;101620.50;5117809;27;20426;-92
2023/10/01 08:55:27;;;;;;;21.83;9.98;;;;;;;14.67;100.00;101620.50;5109158;27;20428;-88
2023/10/01 08:58:13;;;;;;;19.63;9.57;;;;;;;14.83;100.00;101648.59;5136041;27;20423;-88
2023/10/01 09:00:49;;;;;;;16.30;8.70;;;;;;;14.84;100.00;101629.13;5103657;27;20414;-87
2023/10/01 09:03:26;;;;;;;17.38;9.27;;;;;;;14.83;100.00;101627.50;5108482;27;20798;-89
2023/10/01 09:06:03;;;;;;;19.02;9.18;;;;;;;14.67;100.00;101618.56;5104629;27;20434;-89
2023/10/01 09:08:32;;;;;;;18.00;8.77;;;;;;;14.89;100.00;101633.78;5115066;27;20414;-88
2023/10/01 09:11:10;;;;;;;18.77;9.05;;;;;;;14.89;100.00;101598.16;5111837;27;20788;-90
2023/10/01 09:13:51;;;;;;;17.63;8.32;;;;;;;15.04;100.00;101619.94;5112152;27;20437;-89
2023/10/01 09:16:30;;;;;;;17.00;8.75;;;;;;;14.96;100.00;101620.56;5109334;27;20416;-90
2023/10/01 09:19:05;;;;;;;19.73;8.95;;;;;;;15.01;100.00;101614.19;5107882;27;21120;-90
2023/10/01 09:21:38;;;;;;;17.40;8.32;;;;;;;15.16;100.00;101626.97;5108645;27;20421;-90
2023/10/01 09:27:19;;;;;;;17.35;8.43;;;;;;;15.23;100.00;101592.63;5099934;27;20776;-91
2023/10/01 09:29:57;;;;;;;19.40;8.40;;;;;;;15.28;100.00;101614.50;5102475;28;20405;-89
2023/10/01 09:32:51;;;;;;;17.08;7.95;;;;;;;15.28;100.00;101594.50;5117541;27;20428;-89
2023/10/01 09:35:30;;;;;;;20.98;8.05;;;;;;;15.44;100.00;101582.25;5100473;27;20436;-90
2023/10/01 09:38:10;;;;;;;17.92;8.10;;;;;;;15.46;100.00;101604.72;5122512;27;20435;-90
2023/10/01 09:40:41;;;;;;;18.40;7.65;;;;;;;15.42;100.00;101611.91;5109497;27;20433;-91
2023/10/01 09:43:18;;;;;;;16.73;7.90;;;;;;;15.35;100.00;101600.44;5122903;27;20414;-88
2023/10/01 09:45:47;;;;;;;17.27;7.30;;;;;;;15.43;100.00;101615.47;5116146;27;20418;-91
2023/10/01 09:48:30;;;;;;;16.70;7.97;;;;;;;15.33;100.00;101624.63;5110412;27;20423;-90
2023/10/01 09:51:07;;;;;;;16.17;8.07;;;;;;;15.54;100.00;101618.94;5129820;27;20419;-91
2023/10/01 09:53:44;;;;;;;16.23;7.53;;;;;;;15.55;100.00;101615.06;5120688;27;20413;-89
2023/10/01 09:56:14;;;;;;;15.52;7.38;;;;;;;15.65;100.00;101612.22;5108215;27;20431;-88
2023/10/01 09:58:47;;;;;;;13.88;7.15;;;;;;;15.71;100.00;101615.72;5111653;27;20400;-87
2023/10/01 10:01:18;;;;;;;16.10;7.18;;;;;;;15.89;100.00;101611.44;5104509;27;20433;-88
2023/10/01 10:03:54;;;;;;;15.25;7.80;;;;;;;16.01;100.00;101603.59;5100172;28;20420;-86
2023/10/01 10:06:24;;;;;;;15.75;7.28;;;;;;;16.01;100.00;101608.28;5106563;27;20813;-86
2023/10/01 10:09:03;;;;;;;15.85;7.57;;;;;;;15.98;100.00;101604.19;5106965;28;20404;-88
2023/10/01 10:11:45;;;;;;;17.77;7.50;;;;;;;16.00;100.00;101588.22;5123840;27;20422;-90
2023/10/01 10:14:45;;;;;;;16.63;7.28;;;;;;;16.03;100.00;101600.53;5100396;28;20432;-88
2023/10/01 10:17:25;;;;;;;14.67;6.90;;;;;;;15.99;100.00;101605.78;5112123;28;20902;-89
2023/10/01 10:20:25;;;;;;;15.25;6.90;;;;;;;16.03;100.00;101593.13;5120734;28;20434;-89
2023/10/01 10:23:16;;;;;;;18.25;7.10;;;;;;;16.02;100.00;101590.66;5112521;28;20911;-88
2023/10/01 10:25:45;;;;;;;14.55;6.75;;;;;;;16.11;100.00;101621.84;5114068;28;20428;-89
2023/10/01 10:28:25;;;;;;;16.13;6.72;;;;;;;16.11;100.00;101605.38;5115189;28;20424;-89
2023/10/01 10:31:29;;;;;;;16.40;8.03;;;;;;;16.15;100.00;101604.50;5119096;27;21158;-86
2023/10/01 10:34:21;;;;;;;12.93;5.90;;;;;;;16.10;100.00;101582.63;5099026;28;20426;-87
2023/10/01 10:36:58;;;;;;;12.40;5.60;;;;;;;16.16;100.00;101591.59;5115660;27;20423;-87
2023/10/01 10:40:26;;;;;;;13.53;5.77;;;;;;;16.22;100.00;101592.34;5120098;27;20425;-88
2023/10/01 10:43:19;;;;;;;12.02;4.97;;;;;;;16.47;100.00;101591.16;5121803;27;20414;-86
2023/10/01 10:45:58;;;;;;;12.00;4.53;;;;;;;16.36;100.00;101570.44;5112899;27;20413;-87
2023/10/01 10:48:49;;;;;;;14.38;5.65;;;;;;;16.49;100.00;101589.75;5108717;27;20537;-88
2023/10/01 10:51:48;;;;;;;12.77;5.15;;;;;;;16.48;100.00;101596.34;5123094;27;20430;-85
2023/10/01 10:54:29;;;;;;;14.20;5.40;;;;;;;16.39;100.00;101583.56;5136239;27;20776;-88
2023/10/01 10:56:59;;;;;;;15.40;5.65;;;;;;;16.41;100.00;101587.66;5128205;27;20839;-88
2023/10/01 10:59:30;;;;;;;18.17;5.70;;;;;;;16.78;100.00;101586.00;5096554;28;20396;-85
2023/10/01 11:01:59;;;;;;;13.35;4.80;;;;;;;16.81;100.00;101593.63;5106689;28;20431;-87
2023/10/01 11:04:31;;;;;;;17.00;6.80;;;;;;;16.95;100.00;101588.22;5115072;27;20413;-91
2023/10/01 11:07:04;;;;;;;16.75;6.60;;;;;;;16.77;100.00;101570.63;5107129;27;20418;-87
2023/10/01 11:09:39;;;;;;;13.27;4.53;;;;;;;16.76;100.00;101584.66;5107944;28;21057;-90
2023/10/01 11:12:19;;;;;;;14.35;4.05;;;;;;;16.74;100.00;101597.91;5125092;27;20784;-89
2023/10/01 11:14:56;;;;;;;11.47;4.10;;;;;;;16.79;100.00;101589.56;5124780;27;20753;-88
2023/10/01 11:17:24;;;;;;;11.73;3.50;;;;;;;16.46;100.00;101578.53;5113902;27;20403;-89
2023/10/01 11:19:58;;;;;;;10.70;3.65;;;;;;;16.59;100.00;101598.94;5109138;27;20414;-90
2023/10/01 11:22:26;;;;;;;13.73;3.67;;;;;;;16.52;100.00;101595.75;5119280;27;20424;-89
2023/10/01 11:24:56;;;;;;;14.27;4.25;;;;;;;16.53;100.00;101587.22;5122360;27;20418;-87
2023/10/01 11:27:43;;;;;;;12.97;3.43;;;;;;;16.63;100.00;101600.00;5119082;27;20414;-91
2023/10/01 11:30:16;;;;;;;12.43;3.30;;;;;;;16.41;100.00;101584.91;5096232;27;20815;-89
2023/10/01 11:32:58;;;;;;;12.33;3.60;;;;;;;16.48;100.00;101573.56;5109087;27;20428;-88
2023/10/01 11:35:33;;;;;;;10.55;3.22;;;;;;;16.58;100.00;101580.81;5118010;27;20443;-87
2023/10/01 11:38:07;;;;;;;11.15;3.80;;;;;;;16.77;100.00;101578.88;5106759;27;20758;-87
2023/10/01 11:43:33;;;;;;;12.95;3.40;;;;;;;16.82;100.00;101554.03;5113809;27;20765;-89
2023/10/01 11:46:23;;;;;;;9.88;3.53;;;;;;;16.98;100.00;101542.81;5122705;27;21071;-89
2023/10/01 11:49:06;;;;;;;12.55;3.75;;;;;;;17.22;100.00;101530.81;5106118;27;21084;-89
2023/10/01 11:51:41;;;;;;;13.30;3.70;;;;;;;17.02;100.00;101549.34;5117154;27;20882;-87
2023/10/01 11:54:16;;;;;;;11.57;3.58;;;;;;;16.99;100.00;101541.69;5116939;27;20886;-88
2023/10/01 11:56:47;;;;;;;11.52;3.60;;;;;;;17.07;100.00;101546.50;5112511;27;20400;-88
2023/10/01 11:59:20;;;;;;;12.45;4.15;;;;;;;17.00;100.00;101549.63;5108450;27;20400;-87
2023/10/01 12:01:51;;;;;;;11.73;4.10;;;;;;;16.96;100.00;101550.56;5106821;27;20855;-89
2023/10/01 12:07:16;;;;;;;12.18;4.18;;;;;;;16.81;100.00;101535.91;5125839;27;20425;-89
2023/10/01 12:09:49;;;;;;;14.47;4.13;;;;;;;16.64;100.00;101538.41;5103567;27;20433;-90
2023/10/01 12:12:31;;;;;;;15.50;3.97;;;;;;;16.39;100.00;101523.13;5103440;27;20412;-90
2023/10/01 12:17:45;;;;;;;11.77;4.22;;;;;;;16.25;100.00;101534.88;5131376;27;20428;-89
2023/10/01 12:20:22;;;;;;;12.10;4.23;;;;;;;16.33;100.00;101547.94;5110120;27;20424;-90